createdAt,value
2018-02-16T00:01:42.362Z,102164.68
2018-02-16T00:04:11.643Z,102159.25
2018-02-16T00:06:40.928Z,102162.26
2018-02-16T00:12:32.624Z,102162.75
2018-02-16T00:17:15.207Z,102160.71
2018-02-16T00:19:44.780Z,102157.55
2018-02-16T00:22:14.825Z,102164.06
2018-02-16T00:24:43.687Z,102165.83
2018-02-16T00:27:12.809Z,102168.97
2018-02-16T00:29:41.739Z,102164.59
2018-02-16T00:32:10.884Z,102167.14
2018-02-16T00:34:39.723Z,102170.05
2018-02-16T00:37:08.871Z,102174.50
2018-02-16T00:39:37.760Z,102167.38
2018-02-16T00:42:06.721Z,102174.95
2018-02-16T00:44:35.780Z,102172.73
2018-02-16T00:47:04.897Z,102170.22
2018-02-16T00:49:33.432Z,102170.65
2018-02-16T00:53:09.479Z,102170.65
2018-02-16T00:56:14.672Z,102170.16
2018-02-16T00:59:09.355Z,102180.44
2018-02-16T01:01:38.456Z,102178.61
2018-02-16T01:04:07.449Z,102179.54
2018-02-16T01:07:04.438Z,102178.94
2018-02-16T01:09:33.904Z,102175.52
2018-02-16T01:12:02.739Z,102171.81
2018-02-16T01:14:32.213Z,102172.97
2018-02-16T01:17:01.406Z,102169.55
2018-02-16T01:19:30.888Z,102169.50
2018-02-16T01:21:59.901Z,102167.84
2018-02-16T01:24:28.244Z,102163.50
2018-02-16T01:26:57.486Z,102169.14
2018-02-16T01:29:27.408Z,102172.95
2018-02-16T01:31:56.756Z,102172.58
2018-02-16T01:36:08.412Z,102182.03
2018-02-16T01:39:17.438Z,102182.44
2018-02-16T01:41:46.920Z,102174.66
2018-02-16T01:44:15.813Z,102175.17
2018-02-16T01:46:45.334Z,102181.78
2018-02-16T01:49:14.659Z,102189.50
2018-02-16T01:56:18.814Z,102174.73
2018-02-16T01:58:48.456Z,102176.83
2018-02-16T02:01:18.380Z,102173.69
2018-02-16T02:03:48.225Z,102172.66
2018-02-16T02:06:18.387Z,102179.66
2018-02-16T02:08:47.797Z,102178.03
2018-02-16T02:11:17.510Z,102177.67
2018-02-16T02:13:46.822Z,102175.66
2018-02-16T02:16:16.444Z,102175.69
2018-02-16T02:18:46.454Z,102168.71
2018-02-16T02:21:16.208Z,102170.98
2018-02-16T02:23:45.930Z,102177.78
2018-02-16T02:26:14.513Z,102173.40
2018-02-16T02:28:43.880Z,102179.48
2018-02-16T02:31:13.642Z,102181.00
2018-02-16T02:33:43.393Z,102176.52
2018-02-16T02:36:13.212Z,102187.17
2018-02-16T02:38:42.563Z,102185.21
2018-02-16T02:41:12.227Z,102187.78
2018-02-16T02:43:41.915Z,102192.39
2018-02-16T02:46:10.839Z,102192.81
2018-02-16T02:48:39.843Z,102187.31
2018-02-16T02:51:08.817Z,102186.16
2018-02-16T02:53:38.227Z,102196.02
2018-02-16T02:56:07.856Z,102196.44
2018-02-16T02:58:37.426Z,102192.98
2018-02-16T03:01:07.437Z,102205.53
2018-02-16T03:03:36.732Z,102208.63
2018-02-16T03:06:05.755Z,102207.13
2018-02-16T03:08:39.907Z,102207.94
2018-02-16T03:11:09.662Z,102209.59
2018-02-16T03:13:38.752Z,102207.26
2018-02-16T03:16:08.444Z,102212.84
2018-02-16T03:18:38.210Z,102218.28
2018-02-16T03:21:08.218Z,102224.03
2018-02-16T03:23:37.728Z,102227.88
2018-02-16T03:26:07.244Z,102231.28
2018-02-16T03:28:36.892Z,102227.75
2018-02-16T03:31:06.353Z,102241.41
2018-02-16T03:33:35.683Z,102225.70
2018-02-16T03:36:05.190Z,102228.61
2018-02-16T03:38:34.945Z,102232.93
2018-02-16T03:41:03.799Z,102234.48
2018-02-16T03:43:33.616Z,102222.22
2018-02-16T03:46:03.216Z,102229.79
2018-02-16T03:48:32.616Z,102223.89
2018-02-16T03:51:02.209Z,102231.38
2018-02-16T03:53:31.462Z,102229.41
2018-02-16T03:56:01.190Z,102234.52
2018-02-16T03:58:30.591Z,102236.55
2018-02-16T04:02:25.401Z,102234.05
2018-02-16T04:04:54.915Z,102227.72
2018-02-16T04:07:23.390Z,102225.60
2018-02-16T04:09:52.886Z,102227.30
2018-02-16T04:12:22.582Z,102224.36
2018-02-16T04:17:27.883Z,102236.19
2018-02-16T04:22:58.405Z,102236.58
2018-02-16T04:25:28.040Z,102245.09
2018-02-16T04:30:59.710Z,102245.61
2018-02-16T04:33:29.034Z,102247.13
2018-02-16T04:35:57.707Z,102237.71
2018-02-16T04:38:27.387Z,102240.25
2018-02-16T04:40:56.965Z,102239.95
2018-02-16T04:43:25.815Z,102245.44
2018-02-16T04:45:55.376Z,102252.34
2018-02-16T04:48:25.419Z,102248.86
2018-02-16T04:50:55.233Z,102256.13
2018-02-16T04:54:09.390Z,102260.99
2018-02-16T04:56:38.809Z,102259.88
2018-02-16T04:59:08.021Z,102266.34
2018-02-16T05:01:36.725Z,102268.92
2018-02-16T05:06:58.478Z,102283.43
2018-02-16T05:09:27.615Z,102281.91
2018-02-16T05:14:29.568Z,102294.67
2018-02-16T05:16:58.911Z,102290.80
2018-02-16T05:21:33.682Z,102288.69
2018-02-16T05:24:02.790Z,102289.52
2018-02-16T05:26:32.415Z,102293.64
2018-02-16T05:29:01.901Z,102286.11
2018-02-16T05:31:30.378Z,102294.63
2018-02-16T05:38:15.687Z,102291.92
2018-02-16T05:40:44.927Z,102295.99
2018-02-16T05:43:13.714Z,102292.28
2018-02-16T05:45:43.423Z,102294.88
2018-02-16T05:48:12.896Z,102296.85
2018-02-16T05:50:42.359Z,102293.00
2018-02-16T05:53:12.025Z,102296.48
2018-02-16T05:55:40.728Z,102299.03
2018-02-16T05:59:40.835Z,102306.59
2018-02-16T06:02:10.345Z,102308.13
2018-02-16T06:04:39.606Z,102306.56
2018-02-16T06:07:09.200Z,102309.34
2018-02-16T06:09:39.396Z,102315.17
2018-02-16T06:12:08.681Z,102321.02
2018-02-16T06:17:23.730Z,102315.02
2018-02-16T06:19:53.396Z,102316.12
2018-02-16T06:22:22.871Z,102315.59
2018-02-16T06:24:51.904Z,102324.17
2018-02-16T06:27:21.323Z,102330.31
2018-02-16T06:29:50.534Z,102331.94
2018-02-16T06:32:20.378Z,102333.94
2018-02-16T06:34:49.954Z,102332.68
2018-02-16T06:40:01.719Z,102334.34
2018-02-16T06:42:31.438Z,102336.89
2018-02-16T06:45:01.511Z,102336.98
2018-02-16T06:47:31.191Z,102341.77
2018-02-16T06:50:01.177Z,102338.66
2018-02-16T06:52:30.689Z,102338.15
2018-02-16T06:55:00.228Z,102348.63
2018-02-16T06:57:30.480Z,102350.08
2018-02-16T07:00:00.211Z,102350.80
2018-02-16T07:02:29.546Z,102356.87
2018-02-16T07:04:59.451Z,102350.12
2018-02-16T07:07:28.822Z,102354.16
2018-02-16T07:09:58.322Z,102353.32
2018-02-16T07:12:27.899Z,102344.26
2018-02-16T07:14:56.585Z,102349.60
2018-02-16T07:20:13.930Z,102352.03
2018-02-16T07:25:23.921Z,102353.51
2018-02-16T07:27:52.591Z,102351.86
2018-02-16T07:30:21.918Z,102350.23
2018-02-16T07:33:14.754Z,102351.43
2018-02-16T07:35:43.932Z,102342.69
2018-02-16T07:38:12.426Z,102349.91
2018-02-16T07:42:30.675Z,102343.34
2018-02-16T07:44:59.799Z,102357.91
2018-02-16T07:47:29.240Z,102354.06
2018-02-16T07:49:58.780Z,102353.28
2018-02-16T07:52:27.944Z,102360.98
2018-02-16T07:54:56.460Z,102358.45
2018-02-16T07:57:25.738Z,102350.95
2018-02-16T07:59:54.822Z,102355.03
2018-02-16T08:04:42.697Z,102370.14
2018-02-16T08:07:11.884Z,102367.29
2018-02-16T08:09:41.052Z,102363.68
2018-02-16T08:12:09.836Z,102366.42
2018-02-16T08:14:38.891Z,102366.64
2018-02-16T08:17:07.903Z,102361.73
2018-02-16T08:19:37.252Z,102364.69
2018-02-16T08:22:06.861Z,102359.89
2018-02-16T08:24:35.872Z,102364.21
2018-02-16T08:27:05.448Z,102366.01
2018-02-16T08:29:34.819Z,102362.89
2018-02-16T08:32:04.200Z,102357.59
2018-02-16T08:34:33.788Z,102361.34
2018-02-16T08:37:02.952Z,102373.94
2018-02-16T08:40:11.474Z,102371.98
2018-02-16T08:42:40.786Z,102372.39
2018-02-16T08:45:10.476Z,102369.98
2018-02-16T08:47:39.917Z,102369.77
2018-02-16T08:50:08.715Z,102375.47
2018-02-16T08:52:37.896Z,102366.30
2018-02-16T08:55:07.508Z,102371.79
2018-02-16T08:57:36.616Z,102358.41
2018-02-16T09:00:06.557Z,102372.63
2018-02-16T09:02:35.892Z,102368.13
2018-02-16T09:05:04.814Z,102367.50
2018-02-16T09:07:34.386Z,102364.27
2018-02-16T09:10:03.824Z,102365.27
2018-02-16T09:12:33.443Z,102365.87
2018-02-16T09:15:02.800Z,102373.50
2018-02-16T09:17:31.749Z,102366.69
2018-02-16T09:20:00.946Z,102374.84
2018-02-16T09:22:29.706Z,102376.33
2018-02-16T09:29:59.628Z,102369.50
2018-02-16T09:32:28.891Z,102369.17
2018-02-16T09:34:58.327Z,102368.31
2018-02-16T09:37:29.559Z,102369.45
2018-02-16T09:39:59.620Z,102367.94
2018-02-16T09:42:28.740Z,102363.32
2018-02-16T09:44:57.775Z,102363.61
2018-02-16T09:47:27.351Z,102366.94
2018-02-16T09:49:57.191Z,102365.91
2018-02-16T09:52:27.202Z,102364.25
2018-02-16T09:54:55.801Z,102359.93
2018-02-16T09:59:50.390Z,102367.55
2018-02-16T10:02:19.714Z,102367.86
2018-02-16T10:04:48.768Z,102367.73
2018-02-16T10:07:17.555Z,102362.70
2018-02-16T10:09:47.208Z,102358.28
2018-02-16T10:12:16.692Z,102358.74
2018-02-16T10:14:46.247Z,102361.50
2018-02-16T10:17:15.752Z,102353.38
2018-02-16T10:19:44.747Z,102348.96
2018-02-16T10:22:14.347Z,102343.85
2018-02-16T10:24:42.822Z,102341.77
2018-02-16T10:27:12.418Z,102339.27
2018-02-16T10:29:42.192Z,102334.88
2018-02-16T10:32:12.195Z,102327.41
2018-02-16T10:34:41.776Z,102317.14
2018-02-16T10:37:10.898Z,102317.06
2018-02-16T10:39:39.612Z,102316.79
2018-02-16T10:42:08.830Z,102319.97
2018-02-16T10:44:38.430Z,102314.59
2018-02-16T10:47:07.877Z,102309.36
2018-02-16T10:53:04.867Z,102313.47
2018-02-16T10:55:34.361Z,102309.02
2018-02-16T10:58:03.905Z,102311.58
2018-02-16T11:04:03.693Z,102299.78
2018-02-16T11:10:13.196Z,102298.77
2018-02-16T11:12:42.667Z,102291.88
2018-02-16T11:15:12.436Z,102290.32
2018-02-16T11:19:17.224Z,102281.25
2018-02-16T11:21:46.916Z,102278.45
2018-02-16T11:25:41.182Z,102271.20
2018-02-16T11:28:10.844Z,102262.88
2018-02-16T11:30:40.543Z,102265.02
2018-02-16T11:33:10.417Z,102272.53
2018-02-16T11:37:12.799Z,102268.65
2018-02-16T11:39:42.021Z,102264.80
2018-02-16T11:42:11.932Z,102257.38
2018-02-16T11:44:40.652Z,102251.10
2018-02-16T11:47:09.905Z,102249.36
2018-02-16T11:49:38.716Z,102247.33
2018-02-16T11:52:08.176Z,102252.04
2018-02-16T11:54:37.893Z,102250.23
2018-02-16T11:57:07.463Z,102247.11
2018-02-16T11:59:37.220Z,102246.11
2018-02-16T12:02:06.939Z,102239.96
2018-02-16T12:04:35.832Z,102242.47
2018-02-16T12:08:36.812Z,102240.95
2018-02-16T12:12:55.262Z,102235.01
2018-02-16T12:15:25.867Z,102234.72
2018-02-16T12:17:55.203Z,102243.37
2018-02-16T12:23:51.160Z,102229.59
2018-02-16T12:26:21.456Z,102231.65
2018-02-16T12:28:51.464Z,102230.55
2018-02-16T12:31:21.488Z,102232.81
2018-02-16T12:33:51.492Z,102224.14
2018-02-16T12:36:21.200Z,102221.44
2018-02-16T12:42:11.430Z,102219.49
2018-02-16T12:44:41.224Z,102213.90
2018-02-16T12:47:11.172Z,102214.70
2018-02-16T12:49:40.641Z,102219.35
2018-02-16T12:52:10.233Z,102215.27
2018-02-16T12:54:40.185Z,102212.16
2018-02-16T12:57:10.192Z,102217.22
2018-02-16T12:59:39.674Z,102220.16
2018-02-16T13:02:09.201Z,102224.02
2018-02-16T13:04:38.782Z,102225.24
2018-02-16T13:07:07.866Z,102226.97
2018-02-16T13:09:37.476Z,102224.20
2018-02-16T13:12:07.201Z,102224.61
2018-02-16T13:14:36.910Z,102227.44
2018-02-16T13:17:05.602Z,102228.09
2018-02-16T13:19:35.332Z,102222.91
2018-02-16T13:22:04.754Z,102223.70
2018-02-16T13:24:34.252Z,102231.02
2018-02-16T13:27:04.170Z,102229.63
2018-02-16T13:29:33.009Z,102233.61
2018-02-16T13:32:01.701Z,102230.00
2018-02-16T13:34:30.812Z,102224.16
2018-02-16T13:36:59.877Z,102230.18
2018-02-16T13:39:29.573Z,102237.25
2018-02-16T13:41:58.775Z,102227.31
2018-02-16T13:44:28.393Z,102223.58
2018-02-16T13:46:57.916Z,102228.50
2018-02-16T13:49:26.634Z,102233.48
2018-02-16T13:51:56.353Z,102236.85
2018-02-16T13:54:25.740Z,102242.95
2018-02-16T13:56:54.902Z,102236.77
2018-02-16T13:59:23.342Z,102239.45
2018-02-16T14:01:52.739Z,102244.09
2018-02-16T14:04:22.589Z,102248.20
2018-02-16T14:06:51.773Z,102240.61
2018-02-16T14:09:20.899Z,102240.58
2018-02-16T14:11:49.702Z,102239.00
2018-02-16T14:14:18.731Z,102239.00
2018-02-16T14:16:47.791Z,102245.62
2018-02-16T14:19:16.740Z,102242.61
2018-02-16T14:21:46.180Z,102247.52
2018-02-16T14:24:15.986Z,102254.52
2018-02-16T14:26:44.691Z,102250.70
2018-02-16T14:29:14.497Z,102250.08
2018-02-16T14:31:43.796Z,102257.37
2018-02-16T14:34:13.211Z,102261.95
2018-02-16T14:36:42.772Z,102261.27
2018-02-16T14:39:11.927Z,102266.69
2018-02-16T14:41:40.591Z,102264.09
2018-02-16T14:44:10.238Z,102266.97
2018-02-16T14:46:39.744Z,102269.97
2018-02-16T14:49:09.330Z,102273.17
2018-02-16T14:51:38.648Z,102270.19
2018-02-16T14:54:08.013Z,102274.08
2018-02-16T14:56:37.452Z,102266.20
2018-02-16T14:59:06.704Z,102266.04
2018-02-16T15:01:35.780Z,102259.52
2018-02-16T15:04:04.773Z,102267.48
2018-02-16T15:06:33.769Z,102266.48
2018-02-16T15:09:03.407Z,102260.89
2018-02-16T15:12:44.728Z,102270.39
2018-02-16T15:15:45.582Z,102268.45
2018-02-16T15:18:15.392Z,102267.19
2018-02-16T15:20:45.380Z,102269.48
2018-02-16T15:23:14.792Z,102260.36
2018-02-16T15:27:08.775Z,102266.64
2018-02-16T15:29:37.924Z,102262.42
2018-02-16T15:32:06.604Z,102260.28
2018-02-16T15:34:36.376Z,102262.44
2018-02-16T15:37:06.188Z,102262.80
2018-02-16T15:39:35.897Z,102267.47
2018-02-16T15:42:48.928Z,102274.91
2018-02-16T15:45:17.813Z,102274.68
2018-02-16T15:47:47.431Z,102267.41
2018-02-16T15:50:16.869Z,102272.22
2018-02-16T15:52:45.937Z,102274.09
2018-02-16T15:55:14.746Z,102276.15
2018-02-16T15:57:43.943Z,102274.63
2018-02-16T16:00:12.631Z,102275.34
2018-02-16T16:02:41.985Z,102270.89
2018-02-16T16:05:10.719Z,102270.67
2018-02-16T16:07:40.412Z,102270.55
2018-02-16T16:10:09.679Z,102280.40
2018-02-16T16:12:39.192Z,102277.50
2018-02-16T16:15:08.784Z,102286.81
2018-02-16T16:17:38.198Z,102287.58
2018-02-16T16:20:07.790Z,102293.71
2018-02-16T16:22:36.811Z,102298.98
2018-02-16T16:25:05.884Z,102294.41
2018-02-16T16:27:35.440Z,102292.78
2018-02-16T16:30:05.212Z,102284.68
2018-02-16T16:32:35.463Z,102284.46
2018-02-16T16:35:05.200Z,102279.44
2018-02-16T16:37:34.828Z,102276.39
2018-02-16T16:40:04.335Z,102276.52
2018-02-16T16:45:16.946Z,102280.50
2018-02-16T16:47:45.563Z,102275.45
2018-02-16T16:50:14.900Z,102273.53
2018-02-16T16:52:44.417Z,102265.09
2018-02-16T16:55:13.737Z,102263.92
2018-02-16T16:57:42.976Z,102269.41
2018-02-16T17:00:11.666Z,102265.52
2018-02-16T17:02:41.226Z,102270.30
2018-02-16T17:05:10.656Z,102271.78
2018-02-16T17:07:40.239Z,102268.95
2018-02-16T17:10:09.825Z,102268.86
2018-02-16T17:12:38.893Z,102278.47
2018-02-16T17:15:07.911Z,102282.05
2018-02-16T17:17:36.681Z,102287.78
2018-02-16T17:20:05.679Z,102283.37
2018-02-16T17:22:34.937Z,102289.95
2018-02-16T17:25:03.619Z,102279.98
2018-02-16T17:27:33.207Z,102280.52
2018-02-16T17:30:02.757Z,102274.23
2018-02-16T17:32:31.884Z,102284.14
2018-02-16T17:35:01.044Z,102284.57
2018-02-16T17:37:29.727Z,102291.21
2018-02-16T17:40:00.220Z,102297.16
2018-02-16T17:42:29.833Z,102297.33
2018-02-16T17:44:58.900Z,102287.46
2018-02-16T17:47:28.468Z,102283.56
2018-02-16T17:49:57.815Z,102289.73
2018-02-16T17:52:27.182Z,102294.47
2018-02-16T17:54:56.899Z,102290.76
2018-02-16T17:57:26.648Z,102287.98
2018-02-16T17:59:56.235Z,102285.23
2018-02-16T18:02:26.080Z,102277.58
2018-02-16T18:04:54.726Z,102275.63
2018-02-16T18:07:23.828Z,102285.59
2018-02-16T18:09:52.798Z,102291.66
2018-02-16T18:12:22.429Z,102291.27
2018-02-16T18:14:51.913Z,102296.24
2018-02-16T18:17:20.454Z,102298.06
2018-02-16T18:19:49.790Z,102301.31
2018-02-16T18:22:18.924Z,102299.58
2018-02-16T18:25:48.181Z,102300.87
2018-02-16T18:30:51.248Z,102294.00
2018-02-16T18:38:46.381Z,102296.17
2018-02-16T18:41:16.205Z,102290.05
2018-02-16T18:43:45.011Z,102286.09
2018-02-16T18:46:14.029Z,102293.86
2018-02-16T18:48:42.812Z,102302.31
2018-02-16T18:51:12.351Z,102300.73
2018-02-16T18:53:41.702Z,102299.06
2018-02-16T18:56:10.887Z,102300.09
2018-02-16T19:03:41.806Z,102293.36
2018-02-16T19:10:20.916Z,102291.86
2018-02-16T19:12:49.515Z,102293.03
2018-02-16T19:15:18.781Z,102288.39
2018-02-16T19:17:48.203Z,102292.70
2018-02-16T19:20:17.454Z,102300.65
2018-02-16T19:22:46.742Z,102312.73
2018-02-16T19:25:15.787Z,102317.07
2018-02-16T19:27:44.929Z,102313.58
2018-02-16T19:30:13.538Z,102313.53
2018-02-16T19:32:42.812Z,102316.69
2018-02-16T19:35:11.887Z,102325.34
2018-02-16T19:37:40.552Z,102327.06
2018-02-16T19:40:09.690Z,102329.88
2018-02-16T19:42:39.218Z,102324.42
2018-02-16T19:45:08.581Z,102324.64
2018-02-16T19:47:37.810Z,102329.22
2018-02-16T19:50:06.804Z,102321.34
2018-02-16T19:52:35.922Z,102330.21
2018-02-16T19:55:24.931Z,102325.27
2018-02-16T19:57:53.557Z,102328.77
2018-02-16T20:00:23.321Z,102328.91
2018-02-16T20:05:01.818Z,102323.98
2018-02-16T20:07:30.814Z,102322.42
2018-02-16T20:09:59.832Z,102327.39
2018-02-16T20:12:29.433Z,102329.20
2018-02-16T20:14:59.192Z,102331.45
2018-02-16T20:17:28.395Z,102332.45
2018-02-16T20:19:58.229Z,102329.85
2018-02-16T20:22:27.871Z,102332.83
2018-02-16T20:24:56.903Z,102335.33
2018-02-16T20:27:25.433Z,102336.83
2018-02-16T20:29:54.886Z,102334.56
2018-02-16T20:32:24.208Z,102332.65
2018-02-16T20:34:53.807Z,102325.35
2018-02-16T20:40:10.873Z,102330.30
2018-02-16T20:42:40.396Z,102335.80
2018-02-16T20:46:32.928Z,102337.20
2018-02-16T20:49:01.659Z,102333.00
2018-02-16T20:53:04.893Z,102332.30
2018-02-16T20:55:34.343Z,102322.73
2018-02-16T20:58:03.888Z,102329.28
2018-02-16T21:00:32.935Z,102338.30
2018-02-16T21:03:01.674Z,102334.58
2018-02-16T21:05:31.424Z,102337.33
2018-02-16T21:09:45.801Z,102331.30
2018-02-16T21:12:14.924Z,102333.36
2018-02-16T21:14:43.452Z,102335.59
2018-02-16T21:17:12.695Z,102340.17
2018-02-16T21:19:42.026Z,102339.45
2018-02-16T21:24:07.872Z,102338.10
2018-02-16T21:26:37.238Z,102339.89
2018-02-16T21:29:06.905Z,102337.87
2018-02-16T21:34:26.531Z,102331.16
2018-02-16T21:38:10.252Z,102333.05
2018-02-16T21:40:40.208Z,102327.59
2018-02-16T21:44:14.807Z,102334.00
2018-02-16T21:46:44.055Z,102326.66
2018-02-16T21:49:12.851Z,102333.06
2018-02-16T21:51:42.178Z,102330.55
2018-02-16T21:54:11.503Z,102336.10
2018-02-16T21:59:24.347Z,102336.44
2018-02-16T22:01:54.206Z,102337.20
2018-02-16T22:04:23.554Z,102337.12
2018-02-16T22:06:53.340Z,102331.78
2018-02-16T22:09:22.551Z,102327.74
2018-02-16T22:11:51.910Z,102333.89
2018-02-16T22:14:20.485Z,102333.59
2018-02-16T22:16:49.798Z,102327.81
2018-02-16T22:19:18.992Z,102325.77
2018-02-16T22:21:48.806Z,102323.25
2018-02-16T22:24:18.339Z,102324.12
2018-02-16T22:26:47.512Z,102324.40
2018-02-16T22:29:16.801Z,102334.19
2018-02-16T22:31:45.902Z,102333.73
2018-02-16T22:34:14.199Z,102338.39
2018-02-16T22:36:43.731Z,102334.13
2018-02-16T22:39:12.732Z,102335.93
2018-02-16T22:41:41.697Z,102337.45
2018-02-16T22:44:10.726Z,102323.09
2018-02-16T22:46:39.732Z,102329.06
2018-02-16T22:49:09.171Z,102326.38
2018-02-16T22:51:37.837Z,102324.10
2018-02-16T22:54:07.224Z,102326.34
2018-02-16T22:56:36.774Z,102316.33
2018-02-16T22:59:06.235Z,102318.99
2018-02-16T23:01:35.678Z,102316.84
2018-02-16T23:04:04.875Z,102311.27
2018-02-16T23:06:34.418Z,102317.47
2018-02-16T23:09:03.924Z,102312.40
2018-02-16T23:11:32.769Z,102312.75
2018-02-16T23:14:02.431Z,102309.62
2018-02-16T23:16:31.917Z,102303.08
2018-02-16T23:19:00.677Z,102302.80
2018-02-16T23:21:30.327Z,102315.38
2018-02-16T23:23:59.917Z,102317.91
2018-02-16T23:26:28.387Z,102329.77
2018-02-16T23:28:59.823Z,102327.27
2018-02-16T23:31:29.345Z,102328.98
2018-02-16T23:33:59.220Z,102330.25
2018-02-16T23:36:28.644Z,102333.13
2018-02-16T23:38:58.507Z,102335.27
2018-02-16T23:41:28.194Z,102332.30
2018-02-16T23:43:57.494Z,102338.16
2018-02-16T23:46:26.822Z,102335.16
2018-02-16T23:48:55.880Z,102332.94
2018-02-16T23:51:24.335Z,102335.12
2018-02-16T23:53:53.653Z,102336.05
2018-02-16T23:56:23.540Z,102332.97
2018-02-16T23:58:53.208Z,102334.99
